Time;durP1;ratioP1;P1;durP2;ratioP2;P2;SDS_P1;SDS_P2;PMS_P1;PMS_P2;Temp;Humidity;BMP_temperature;BMP_pressure;BME280_temperature;BME280_humidity;BME280_pressure;Samples;Min_cycle;Max_cycle;Signal;HPM_P1;HPM_P2
2022/10/08 00:00:06;;;;;;;;;3.00;3.00;;;;;;;;105494;1282;14992;-50
2022/10/08 00:02:53;;;;;;;;;4.00;3.00;;;;;;;;105534;1298;16052;-49
2022/10/08 00:05:20;;;;;;;;;2.00;2.00;;;;;;;;105465;1278;17770;-51
2022/10/08 00:07:48;;;;;;;;;5.00;5.00;;;;;;;;105521;1284;13748;-51
2022/10/08 00:10:15;;;;;;;;;5.00;5.00;;;;;;;;105480;1278;16503;-50
2022/10/08 00:12:42;;;;;;;;;6.00;6.00;;;;;;;;105498;1285;16760;-52
2022/10/08 00:15:10;;;;;;;;;;;;;;;;;;105475;1305;16083;-50
2022/10/08 00:17:37;;;;;;;;;5.00;5.00;;;;;;;;105545;1294;17397;-51
2022/10/08 00:20:04;;;;;;;;;3.00;3.00;;;;;;;;105484;1298;14435;-50
2022/10/08 00:22:32;;;;;;;;;3.00;3.00;;;;;;;;105530;1283;13736;-51
2022/10/08 00:24:59;;;;;;;;;5.00;3.00;;;;;;;;105489;1284;17393;-53
2022/10/08 00:27:28;;;;;;;;;3.00;3.00;;;;;;;;105504;1278;16410;-52
2022/10/08 00:29:55;;;;;;;;;2.50;2.50;;;;;;;;105517;1292;14546;-51
2022/10/08 00:32:22;;;;;;;;;5.00;3.00;;;;;;;;105439;1285;16418;-51
2022/10/08 00:34:50;;;;;;;;;3.00;3.00;;;;;;;;105536;1305;16006;-52
2022/10/08 00:37:17;;;;;;;;;3.00;3.00;;;;;;;;105511;1300;14672;-53
2022/10/08 00:39:44;;;;;;;;;3.00;3.00;;;;;;;;105488;1298;16574;-52
2022/10/08 00:42:12;;;;;;;;;5.00;3.00;;;;;;;;105503;1306;15988;-51
2022/10/08 00:44:39;;;;;;;;;3.00;3.00;;;;;;;;105469;1278;15846;-52
2022/10/08 00:47:06;;;;;;;;;2.00;2.00;;;;;;;;105475;1294;17277;-52
2022/10/08 00:49:34;;;;;;;;;3.00;3.00;;;;;;;;105533;1306;15351;-51
2022/10/08 00:52:01;;;;;;;;;;;;;;;;;;105488;1304;16081;-52
2022/10/08 00:54:28;;;;;;;;;4.00;4.00;;;;;;;;105536;1306;16470;-54
2022/10/08 00:56:56;;;;;;;;;5.00;5.00;;;;;;;;105553;1292;15218;-51
2022/10/08 00:59:23;;;;;;;;;5.00;4.00;;;;;;;;105511;1285;17820;-54
2022/10/08 01:01:52;;;;;;;;;6.00;4.00;;;;;;;;105557;1306;17752;-51
2022/10/08 01:04:19;;;;;;;;;3.00;3.00;;;;;;;;105498;1285;14368;-54
2022/10/08 01:06:46;;;;;;;;;3.00;3.00;;;;;;;;105481;1283;16546;-55
2022/10/08 01:09:14;;;;;;;;;5.00;5.00;;;;;;;;105507;1285;16868;-55
2022/10/08 01:11:41;;;;;;;;;4.00;4.00;;;;;;;;105500;1301;17246;-51
2022/10/08 01:14:09;;;;;;;;;2.00;2.00;;;;;;;;105519;1306;14362;-51
2022/10/08 01:16:37;;;;;;;;;4.00;3.00;;;;;;;;105563;1300;13944;-52
2022/10/08 01:19:04;;;;;;;;;2.50;2.50;;;;;;;;105523;1285;16597;-52
2022/10/08 01:21:31;;;;;;;;;6.00;5.00;;;;;;;;105520;1305;15584;-52
2022/10/08 01:23:58;;;;;;;;;3.00;3.00;;;;;;;;105495;1283;16788;-52
2022/10/08 01:26:26;;;;;;;;;3.00;3.00;;;;;;;;105482;1300;15757;-51
2022/10/08 01:28:55;;;;;;;;;6.50;5.00;;;;;;;;105578;1306;13692;-52
2022/10/08 01:31:22;;;;;;;;;6.00;5.00;;;;;;;;105535;1277;15548;-52
2022/10/08 01:33:49;;;;;;;;;3.00;3.00;;;;;;;;105520;1305;16700;-51
2022/10/08 01:36:17;;;;;;;;;4.00;4.00;;;;;;;;105491;1306;14479;-53
2022/10/08 01:38:44;;;;;;;;;3.00;3.00;;;;;;;;105533;1285;16636;-54
2022/10/08 01:41:11;;;;;;;;;3.00;3.00;;;;;;;;105509;1298;16824;-52
2022/10/08 01:43:39;;;;;;;;;5.00;4.00;;;;;;;;105580;1306;13928;-53
2022/10/08 01:46:06;;;;;;;;;3.00;3.00;;;;;;;;105505;1298;17196;-53
2022/10/08 01:48:34;;;;;;;;;2.00;2.00;;;;;;;;105474;1292;14920;-51
2022/10/08 01:51:01;;;;;;;;;3.00;3.00;;;;;;;;105436;1292;16577;-53
2022/10/08 01:53:32;;;;;;;;;3.00;3.00;;;;;;;;105499;1306;15554;-54
2022/10/08 01:55:59;;;;;;;;;5.00;5.00;;;;;;;;105501;1305;16915;-53
2022/10/08 01:58:27;;;;;;;;;;;;;;;;;;105518;1305;16432;-51
2022/10/08 02:00:55;;;;;;;;;5.00;5.00;;;;;;;;105533;1306;14179;-50
2022/10/08 02:03:22;;;;;;;;;5.00;3.00;;;;;;;;105535;1283;17548;-51
2022/10/08 02:05:50;;;;;;;;;5.00;5.00;;;;;;;;105503;1291;16908;-55
2022/10/08 02:08:17;;;;;;;;;;;;;;;;;;105521;1306;14842;-51
2022/10/08 02:10:44;;;;;;;;;3.00;3.00;;;;;;;;105535;1305;15087;-52
2022/10/08 02:13:12;;;;;;;;;3.00;3.00;;;;;;;;105491;1295;14785;-51
2022/10/08 02:15:39;;;;;;;;;5.00;3.00;;;;;;;;105481;1301;16809;-53
2022/10/08 02:18:06;;;;;;;;;3.00;3.00;;;;;;;;105495;1283;17054;-51
2022/10/08 02:20:34;;;;;;;;;3.00;3.00;;;;;;;;105502;1300;16931;-52
2022/10/08 02:23:01;;;;;;;;;5.00;3.00;;;;;;;;105521;1300;16868;-51
2022/10/08 02:25:29;;;;;;;;;;;;;;;;;;105537;1300;13603;-52
2022/10/08 02:27:56;;;;;;;;;3.00;3.00;;;;;;;;105520;1306;16533;-52
2022/10/08 02:30:23;;;;;;;;;5.00;5.00;;;;;;;;105503;1283;14779;-51
2022/10/08 02:32:50;;;;;;;;;;;;;;;;;;105501;1283;15088;-53
2022/10/08 02:35:18;;;;;;;;;3.00;3.00;;;;;;;;105530;1298;16351;-51
2022/10/08 02:37:45;;;;;;;;;3.00;3.00;;;;;;;;105509;1306;14964;-52
2022/10/08 02:40:12;;;;;;;;;2.00;2.00;;;;;;;;105491;1306;15242;-50
2022/10/08 02:42:40;;;;;;;;;3.00;3.00;;;;;;;;105455;1306;16641;-51
2022/10/08 02:45:07;;;;;;;;;3.00;3.00;;;;;;;;105462;1305;13950;-51
2022/10/08 02:47:34;;;;;;;;;3.00;3.00;;;;;;;;105493;1306;15596;-52
2022/10/08 02:50:01;;;;;;;;;3.00;3.00;;;;;;;;105524;1300;16488;-52
2022/10/08 02:52:29;;;;;;;;;2.00;2.00;;;;;;;;105526;1306;15729;-50
2022/10/08 02:54:56;;;;;;;;;;;;;;;;;;105464;1298;14997;-50
2022/10/08 02:57:24;;;;;;;;;;;;;;;;;;105495;1299;16944;-51
2022/10/08 02:59:51;;;;;;;;;;;;;;;;;;105505;1303;17695;-50
2022/10/08 03:02:18;;;;;;;;;;;;;;;;;;105476;1306;16562;-51
2022/10/08 03:04:46;;;;;;;;;2.50;2.50;;;;;;;;105526;1300;16629;-53
2022/10/08 03:07:14;;;;;;;;;3.00;3.00;;;;;;;;105491;1285;20005;-52
2022/10/08 03:09:41;;;;;;;;;3.00;3.00;;;;;;;;105477;1284;15047;-54
2022/10/08 03:12:09;;;;;;;;;3.00;3.00;;;;;;;;105482;1298;15165;-54
2022/10/08 03:14:36;;;;;;;;;5.00;3.00;;;;;;;;105530;1298;14686;-53
2022/10/08 03:17:03;;;;;;;;;3.00;3.00;;;;;;;;105503;1298;16526;-50
2022/10/08 03:19:30;;;;;;;;;3.00;3.00;;;;;;;;105476;1306;15414;-53
2022/10/08 03:21:58;;;;;;;;;3.00;3.00;;;;;;;;105491;1301;15381;-50
2022/10/08 03:24:25;;;;;;;;;3.00;3.00;;;;;;;;105461;1291;16071;-52
2022/10/08 03:26:52;;;;;;;;;2.50;2.50;;;;;;;;105499;1298;15280;-51
2022/10/08 03:29:19;;;;;;;;;3.00;3.00;;;;;;;;105487;1298;16397;-49
2022/10/08 03:31:47;;;;;;;;;5.00;3.00;;;;;;;;105539;1300;14009;-52
2022/10/08 03:34:14;;;;;;;;;3.00;3.00;;;;;;;;105499;1298;16196;-50
2022/10/08 03:36:41;;;;;;;;;3.00;3.00;;;;;;;;105501;1285;16117;-50
2022/10/08 03:39:08;;;;;;;;;3.00;3.00;;;;;;;;105447;1285;15824;-52
2022/10/08 03:41:36;;;;;;;;;3.00;3.00;;;;;;;;105481;1298;16493;-50
2022/10/08 03:44:03;;;;;;;;;5.00;5.00;;;;;;;;105536;1285;14763;-51
2022/10/08 03:46:30;;;;;;;;;3.00;3.00;;;;;;;;105496;1306;14451;-53
2022/10/08 03:48:58;;;;;;;;;3.00;3.00;;;;;;;;105466;1278;14936;-50
2022/10/08 03:51:25;;;;;;;;;3.00;3.00;;;;;;;;105522;1306;14456;-53
2022/10/08 03:53:52;;;;;;;;;3.00;3.00;;;;;;;;105525;1306;15464;-52
2022/10/08 03:56:19;;;;;;;;;5.00;5.00;;;;;;;;105515;1292;14966;-50
2022/10/08 03:58:47;;;;;;;;;2.50;2.50;;;;;;;;105529;1305;14753;-51
2022/10/08 04:01:14;;;;;;;;;3.00;3.00;;;;;;;;105494;1303;13069;-52
2022/10/08 04:03:41;;;;;;;;;3.00;3.00;;;;;;;;105524;1306;17671;-50
2022/10/08 04:06:08;;;;;;;;;4.00;4.00;;;;;;;;105498;1291;17027;-50
2022/10/08 04:08:36;;;;;;;;;2.00;2.00;;;;;;;;105479;1306;14908;-51
2022/10/08 04:11:03;;;;;;;;;3.00;3.00;;;;;;;;105508;1278;14576;-54
2022/10/08 04:13:30;;;;;;;;;;;;;;;;;;105512;1305;15065;-51
2022/10/08 04:15:58;;;;;;;;;3.00;3.00;;;;;;;;105497;1306;14592;-50
2022/10/08 04:18:25;;;;;;;;;5.00;5.00;;;;;;;;105478;1298;14391;-54
2022/10/08 04:20:52;;;;;;;;;2.50;2.00;;;;;;;;105495;1285;16235;-52
2022/10/08 04:23:19;;;;;;;;;3.00;3.00;;;;;;;;105534;1306;15388;-49
2022/10/08 04:25:47;;;;;;;;;3.00;3.00;;;;;;;;105515;1306;16568;-50
2022/10/08 04:28:14;;;;;;;;;4.00;4.00;;;;;;;;105494;1306;15476;-56
2022/10/08 04:30:41;;;;;;;;;5.00;3.00;;;;;;;;105499;1278;15549;-50
2022/10/08 04:33:08;;;;;;;;;5.00;3.00;;;;;;;;105460;1291;14828;-52
2022/10/08 04:35:36;;;;;;;;;3.00;3.00;;;;;;;;105507;1285;16987;-51
2022/10/08 04:38:03;;;;;;;;;2.00;2.00;;;;;;;;105528;1306;14404;-50
2022/10/08 04:40:30;;;;;;;;;3.00;3.00;;;;;;;;105500;1306;17059;-50
2022/10/08 04:42:57;;;;;;;;;6.00;5.00;;;;;;;;105476;1294;16445;-50
2022/10/08 04:45:25;;;;;;;;;3.00;3.00;;;;;;;;105495;1305;17061;-51
2022/10/08 04:47:52;;;;;;;;;7.00;6.50;;;;;;;;105486;1300;15139;-51
2022/10/08 04:50:19;;;;;;;;;6.00;5.00;;;;;;;;105523;1278;14186;-51
2022/10/08 04:52:46;;;;;;;;;3.00;3.00;;;;;;;;105539;1300;17109;-51
2022/10/08 04:55:14;;;;;;;;;5.00;5.00;;;;;;;;105534;1299;14031;-49
2022/10/08 04:57:41;;;;;;;;;3.00;3.00;;;;;;;;105514;1299;15155;-50
2022/10/08 05:00:08;;;;;;;;;3.00;3.00;;;;;;;;105518;1294;14314;-51
2022/10/08 05:02:36;;;;;;;;;5.50;5.00;;;;;;;;105508;1306;16000;-52
2022/10/08 05:05:03;;;;;;;;;5.00;3.00;;;;;;;;105559;1306;16701;-53
2022/10/08 05:07:30;;;;;;;;;3.00;3.00;;;;;;;;105538;1278;14479;-51
2022/10/08 05:09:57;;;;;;;;;5.00;3.00;;;;;;;;105500;1292;14126;-51
2022/10/08 05:12:25;;;;;;;;;3.00;3.00;;;;;;;;105504;1285;14747;-49
2022/10/08 05:14:52;;;;;;;;;3.00;3.00;;;;;;;;105518;1293;14039;-49
2022/10/08 05:17:19;;;;;;;;;6.00;5.00;;;;;;;;105508;1283;16444;-52
2022/10/08 05:19:46;;;;;;;;;5.00;5.00;;;;;;;;105520;1306;17009;-52
2022/10/08 05:22:14;;;;;;;;;3.00;3.00;;;;;;;;105514;1306;13922;-51
2022/10/08 05:24:41;;;;;;;;;2.00;2.00;;;;;;;;105465;1288;15020;-51
2022/10/08 05:27:08;;;;;;;;;3.00;3.00;;;;;;;;105483;1306;14794;-51
2022/10/08 05:29:35;;;;;;;;;3.00;3.00;;;;;;;;105483;1292;16775;-50
2022/10/08 05:32:03;;;;;;;;;3.00;3.00;;;;;;;;105533;1305;16380;-50
2022/10/08 05:34:30;;;;;;;;;6.00;3.00;;;;;;;;105494;1283;16177;-50
2022/10/08 05:36:57;;;;;;;;;3.00;3.00;;;;;;;;105489;1306;16620;-52
2022/10/08 05:39:25;;;;;;;;;3.00;3.00;;;;;;;;105474;1299;17060;-53
2022/10/08 05:41:53;;;;;;;;;3.00;3.00;;;;;;;;105468;1284;15398;-50
2022/10/08 05:44:20;;;;;;;;;3.00;3.00;;;;;;;;105500;1306;14821;-53
2022/10/08 05:46:47;;;;;;;;;5.50;5.50;;;;;;;;105557;1306;16146;-49
2022/10/08 05:49:15;;;;;;;;;;;;;;;;;;105492;1306;14798;-51
2022/10/08 05:51:42;;;;;;;;;4.00;4.00;;;;;;;;105499;1301;16887;-52
2022/10/08 05:54:09;;;;;;;;;5.00;5.00;;;;;;;;105515;1306;15242;-51
2022/10/08 05:56:36;;;;;;;;;5.00;5.00;;;;;;;;105444;1306;15178;-52
2022/10/08 05:59:04;;;;;;;;;6.00;5.00;;;;;;;;105534;1306;16934;-55
2022/10/08 06:01:31;;;;;;;;;4.00;3.00;;;;;;;;105537;1298;16715;-51
2022/10/08 06:03:58;;;;;;;;;5.00;5.00;;;;;;;;105508;1306;16951;-53
2022/10/08 06:06:26;;;;;;;;;5.00;3.00;;;;;;;;105505;1292;17249;-50
2022/10/08 06:08:53;;;;;;;;;3.00;3.00;;;;;;;;105517;1294;15533;-51
2022/10/08 06:11:20;;;;;;;;;5.00;5.00;;;;;;;;105518;1278;15942;-51
2022/10/08 06:13:47;;;;;;;;;3.00;3.00;;;;;;;;105491;1306;16811;-51
2022/10/08 06:16:15;;;;;;;;;5.00;5.00;;;;;;;;105440;1306;15244;-51
2022/10/08 06:18:42;;;;;;;;;3.00;3.00;;;;;;;;105487;1306;16332;-51
2022/10/08 06:21:09;;;;;;;;;3.00;3.00;;;;;;;;105480;1281;16135;-52
2022/10/08 06:23:36;;;;;;;;;5.00;5.00;;;;;;;;105458;1305;14904;-50
2022/10/08 06:26:04;;;;;;;;;5.00;5.00;;;;;;;;105538;1300;16705;-52
2022/10/08 06:28:31;;;;;;;;;6.00;6.00;;;;;;;;105494;1300;17614;-53
2022/10/08 06:30:58;;;;;;;;;5.00;5.00;;;;;;;;105476;1278;17207;-51
2022/10/08 06:33:25;;;;;;;;;9.00;9.00;;;;;;;;105504;1299;15948;-51
2022/10/08 06:35:53;;;;;;;;;5.00;5.00;;;;;;;;105511;1306;14756;-51
2022/10/08 06:38:20;;;;;;;;;5.00;5.00;;;;;;;;105474;1285;16830;-51
2022/10/08 06:40:47;;;;;;;;;7.00;6.00;;;;;;;;105499;1306;16397;-51
2022/10/08 06:43:14;;;;;;;;;6.00;5.00;;;;;;;;105468;1292;16845;-54
2022/10/08 06:45:42;;;;;;;;;5.00;5.00;;;;;;;;105477;1292;16041;-49
2022/10/08 06:48:09;;;;;;;;;6.00;5.50;;;;;;;;105451;1299;16613;-51
2022/10/08 06:50:36;;;;;;;;;5.00;5.00;;;;;;;;105499;1290;15980;-52
2022/10/08 06:53:04;;;;;;;;;6.00;6.00;;;;;;;;105530;1300;15770;-52
2022/10/08 06:55:31;;;;;;;;;7.00;5.00;;;;;;;;105497;1291;16387;-52
2022/10/08 06:57:58;;;;;;;;;5.50;5.50;;;;;;;;105496;1285;14885;-50
2022/10/08 07:00:25;;;;;;;;;6.00;6.00;;;;;;;;105498;1306;15194;-53
2022/10/08 07:02:53;;;;;;;;;5.50;5.50;;;;;;;;105503;1306;16024;-52
2022/10/08 07:05:20;;;;;;;;;7.00;7.00;;;;;;;;105515;1298;16714;-51
2022/10/08 07:07:47;;;;;;;;;5.00;5.00;;;;;;;;105555;1299;15659;-50
2022/10/08 07:10:14;;;;;;;;;7.00;6.00;;;;;;;;105492;1285;13953;-52
2022/10/08 07:12:42;;;;;;;;;6.00;6.00;;;;;;;;105489;1300;16753;-49
2022/10/08 07:15:09;;;;;;;;;6.00;6.00;;;;;;;;105480;1306;15097;-52
2022/10/08 07:17:36;;;;;;;;;6.00;6.00;;;;;;;;105423;1291;16321;-54
2022/10/08 07:20:04;;;;;;;;;5.00;5.00;;;;;;;;105513;1278;14939;-50
2022/10/08 07:22:31;;;;;;;;;6.00;6.00;;;;;;;;105461;1306;15132;-52
2022/10/08 07:25:00;;;;;;;;;6.00;5.00;;;;;;;;105474;1283;16514;-50
2022/10/08 07:27:27;;;;;;;;;;;;;;;;;;105483;1283;13915;-51
2022/10/08 07:29:55;;;;;;;;;5.00;5.00;;;;;;;;105489;1283;14230;-51
2022/10/08 07:32:22;;;;;;;;;5.00;5.00;;;;;;;;105506;1285;17011;-50
2022/10/08 07:34:49;;;;;;;;;6.00;5.00;;;;;;;;105544;1306;15932;-51
2022/10/08 07:37:17;;;;;;;;;6.00;6.00;;;;;;;;105489;1306;16578;-52
2022/10/08 07:39:44;;;;;;;;;6.00;6.00;;;;;;;;105464;1278;14573;-51
2022/10/08 07:42:11;;;;;;;;;6.50;6.50;;;;;;;;105383;1292;111638;-53
2022/10/08 07:44:39;;;;;;;;;7.00;6.00;;;;;;;;105508;1306;16492;-53
2022/10/08 07:47:08;;;;;;;;;24.00;22.50;;;;;;;;105559;1305;15410;-52
2022/10/08 07:49:35;;;;;;;;;28.00;22.00;;;;;;;;105511;1306;14201;-53
2022/10/08 07:52:02;;;;;;;;;25.00;24.00;;;;;;;;105503;1301;15072;-51
2022/10/08 07:54:29;;;;;;;;;28.00;26.50;;;;;;;;105505;1290;14783;-55
2022/10/08 07:56:57;;;;;;;;;32.50;29.00;;;;;;;;105486;1300;15347;-52
2022/10/08 07:59:24;;;;;;;;;29.50;27.00;;;;;;;;105499;1306;14474;-53
2022/10/08 08:01:51;;;;;;;;;;;;;;;;;;105566;1306;16416;-51
2022/10/08 08:04:18;;;;;;;;;30.00;25.00;;;;;;;;105511;1291;16174;-54
2022/10/08 08:06:47;;;;;;;;;32.00;28.50;;;;;;;;105514;1306;14016;-53
2022/10/08 08:09:15;;;;;;;;;34.00;32.00;;;;;;;;105492;1278;16419;-52
2022/10/08 08:11:42;;;;;;;;;41.00;35.00;;;;;;;;105493;1283;17245;-50
2022/10/08 08:14:09;;;;;;;;;41.00;33.00;;;;;;;;105508;1299;16937;-53
2022/10/08 08:16:37;;;;;;;;;33.00;29.00;;;;;;;;105546;1292;15772;-54
2022/10/08 08:19:04;;;;;;;;;36.00;32.00;;;;;;;;105459;1283;16922;-50
2022/10/08 08:21:31;;;;;;;;;;;;;;;;;;105481;1284;16836;-50
2022/10/08 08:23:58;;;;;;;;;38.00;33.00;;;;;;;;105457;1278;17103;-50
2022/10/08 08:26:26;;;;;;;;;35.50;32.50;;;;;;;;105460;1298;16256;-50
2022/10/08 08:28:53;;;;;;;;;39.00;34.00;;;;;;;;105548;1306;17375;-50
2022/10/08 08:31:20;;;;;;;;;29.00;28.50;;;;;;;;105498;1298;16842;-51
2022/10/08 08:33:49;;;;;;;;;34.00;33.00;;;;;;;;105509;1304;17056;-49
2022/10/08 08:36:17;;;;;;;;;34.00;33.00;;;;;;;;105503;1294;14008;-51
2022/10/08 08:38:44;;;;;;;;;;;;;;;;;;105502;1278;14055;-50
2022/10/08 08:41:11;;;;;;;;;30.00;29.00;;;;;;;;105399;1291;16055;-51
2022/10/08 08:43:39;;;;;;;;;29.50;26.50;;;;;;;;105476;1303;16828;-51
2022/10/08 08:46:06;;;;;;;;;29.00;26.50;;;;;;;;105516;1298;16915;-54
2022/10/08 08:48:33;;;;;;;;;;;;;;;;;;105532;1300;16174;-54
2022/10/08 08:51:03;;;;;;;;;31.00;25.00;;;;;;;;105533;1306;13941;-55
2022/10/08 08:53:30;;;;;;;;;;;;;;;;;;105476;1306;13950;-50
2022/10/08 08:55:57;;;;;;;;;25.00;24.00;;;;;;;;105438;1305;15558;-50
2022/10/08 08:58:25;;;;;;;;;25.00;25.00;;;;;;;;105467;1306;15008;-53
2022/10/08 09:00:52;;;;;;;;;21.00;21.00;;;;;;;;105556;1305;18090;-51
2022/10/08 09:03:20;;;;;;;;;;;;;;;;;;105469;1300;16594;-54
2022/10/08 09:05:47;;;;;;;;;22.00;20.50;;;;;;;;105590;1299;17333;-54
2022/10/08 09:08:14;;;;;;;;;22.50;19.50;;;;;;;;105537;1292;14753;-54
2022/10/08 09:10:42;;;;;;;;;21.00;19.00;;;;;;;;105534;1306;17771;-51
2022/10/08 09:13:09;;;;;;;;;20.00;17.00;;;;;;;;105526;1306;16969;-55
2022/10/08 09:15:36;;;;;;;;;20.00;19.50;;;;;;;;105521;1306;14501;-52
2022/10/08 09:18:04;;;;;;;;;16.00;15.00;;;;;;;;105559;1306;15121;-52
2022/10/08 09:20:31;;;;;;;;;15.50;15.50;;;;;;;;105526;1306;14598;-54
2022/10/08 09:22:58;;;;;;;;;17.00;15.00;;;;;;;;105564;1299;14087;-51
2022/10/08 09:25:27;;;;;;;;;16.00;16.00;;;;;;;;105520;1291;17109;-51
2022/10/08 09:27:54;;;;;;;;;15.00;15.00;;;;;;;;105531;1299;16498;-51
2022/10/08 09:30:21;;;;;;;;;17.50;14.00;;;;;;;;105533;1285;14510;-50
2022/10/08 09:32:48;;;;;;;;;20.50;16.00;;;;;;;;105505;1306;15669;-50
2022/10/08 09:35:16;;;;;;;;;18.00;16.00;;;;;;;;105513;1292;14327;-51
2022/10/08 09:37:43;;;;;;;;;16.00;15.50;;;;;;;;105559;1306;16729;-52
2022/10/08 09:40:10;;;;;;;;;16.00;15.00;;;;;;;;105481;1292;16091;-52
2022/10/08 09:42:37;;;;;;;;;;;;;;;;;;105485;1292;16684;-55
2022/10/08 09:45:05;;;;;;;;;17.00;16.00;;;;;;;;105493;1299;14638;-51
2022/10/08 09:47:32;;;;;;;;;;;;;;;;;;105513;1301;14362;-54
2022/10/08 09:49:59;;;;;;;;;17.00;15.50;;;;;;;;105561;1298;13568;-51
2022/10/08 09:52:27;;;;;;;;;14.00;14.00;;;;;;;;105521;1300;14410;-51
2022/10/08 09:54:54;;;;;;;;;15.00;14.00;;;;;;;;105509;1291;16526;-52
2022/10/08 09:57:21;;;;;;;;;25.00;24.50;;;;;;;;105520;1305;17019;-54
2022/10/08 09:59:48;;;;;;;;;21.00;19.50;;;;;;;;105519;1290;15479;-51
2022/10/08 10:02:16;;;;;;;;;20.00;19.00;;;;;;;;105511;1303;16535;-53
2022/10/08 10:04:44;;;;;;;;;20.00;19.00;;;;;;;;105512;1306;14810;-51
2022/10/08 10:07:12;;;;;;;;;19.00;16.00;;;;;;;;105513;1283;14742;-50
2022/10/08 10:09:39;;;;;;;;;19.00;17.00;;;;;;;;105514;1288;14076;-50
2022/10/08 10:12:06;;;;;;;;;21.00;17.00;;;;;;;;105496;1285;16604;-53
2022/10/08 10:14:33;;;;;;;;;19.00;15.00;;;;;;;;105537;1278;16611;-50
2022/10/08 10:17:01;;;;;;;;;17.00;16.00;;;;;;;;105508;1306;17635;-52
2022/10/08 10:19:28;;;;;;;;;12.00;12.00;;;;;;;;105511;1285;15074;-51
2022/10/08 10:21:56;;;;;;;;;14.50;14.50;;;;;;;;105513;1298;14717;-55
2022/10/08 10:24:23;;;;;;;;;15.50;15.00;;;;;;;;105494;1306;16138;-50
2022/10/08 10:26:51;;;;;;;;;15.00;14.00;;;;;;;;105487;1298;16369;-55
2022/10/08 10:29:18;;;;;;;;;16.00;15.00;;;;;;;;105495;1298;16954;-52
2022/10/08 10:31:46;;;;;;;;;14.00;14.00;;;;;;;;105540;1306;14297;-53
2022/10/08 10:34:13;;;;;;;;;14.00;14.00;;;;;;;;105507;1285;16531;-52
2022/10/08 10:36:40;;;;;;;;;12.00;12.00;;;;;;;;105541;1306;16709;-50
2022/10/08 10:39:07;;;;;;;;;14.00;14.00;;;;;;;;105520;1300;13816;-50
2022/10/08 10:41:36;;;;;;;;;15.00;15.00;;;;;;;;105496;1300;14048;-50
2022/10/08 10:44:03;;;;;;;;;14.00;12.00;;;;;;;;105558;1300;15105;-51
2022/10/08 10:46:30;;;;;;;;;18.00;16.00;;;;;;;;105531;1301;14803;-52
2022/10/08 10:48:58;;;;;;;;;29.00;27.00;;;;;;;;105449;1305;14417;-49
2022/10/08 10:51:25;;;;;;;;;23.00;20.00;;;;;;;;105518;1306;14776;-54
2022/10/08 10:53:52;;;;;;;;;20.00;20.00;;;;;;;;105500;1285;17439;-54
2022/10/08 10:56:19;;;;;;;;;24.00;23.00;;;;;;;;105529;1306;14715;-53
2022/10/08 10:58:47;;;;;;;;;;;;;;;;;;105532;1306;16023;-54
2022/10/08 11:01:14;;;;;;;;;19.50;18.00;;;;;;;;105527;1300;14492;-52
2022/10/08 11:03:41;;;;;;;;;;;;;;;;;;105513;1279;16892;-51
2022/10/08 11:06:09;;;;;;;;;18.00;15.00;;;;;;;;105496;1305;15075;-51
2022/10/08 11:08:36;;;;;;;;;19.00;17.00;;;;;;;;105505;1306;14900;-51
2022/10/08 11:11:03;;;;;;;;;21.00;19.00;;;;;;;;105550;1306;16892;-53
2022/10/08 11:13:31;;;;;;;;;;;;;;;;;;105493;1278;15053;-51
2022/10/08 11:15:58;;;;;;;;;24.00;21.00;;;;;;;;105495;1285;17101;-50
2022/10/08 11:18:25;;;;;;;;;20.00;18.00;;;;;;;;105531;1306;21591;-53
2022/10/08 11:20:52;;;;;;;;;21.00;20.00;;;;;;;;105536;1292;16077;-52
2022/10/08 11:23:19;;;;;;;;;17.00;16.00;;;;;;;;105542;1298;14832;-51
2022/10/08 11:25:47;;;;;;;;;18.50;18.00;;;;;;;;105558;1299;14770;-51
2022/10/08 11:28:15;;;;;;;;;16.00;16.00;;;;;;;;105539;1299;16278;-52
2022/10/08 11:30:42;;;;;;;;;27.00;23.00;;;;;;;;105496;1294;14050;-52
2022/10/08 11:33:09;;;;;;;;;20.00;15.50;;;;;;;;105505;1299;16608;-51
2022/10/08 11:35:36;;;;;;;;;18.00;18.00;;;;;;;;105482;1277;14921;-49
2022/10/08 11:38:04;;;;;;;;;29.50;28.50;;;;;;;;105520;1306;16440;-50
2022/10/08 11:40:31;;;;;;;;;26.00;25.00;;;;;;;;105479;1301;14746;-52
2022/10/08 11:42:59;;;;;;;;;23.00;21.00;;;;;;;;105515;1298;15189;-50
2022/10/08 11:45:26;;;;;;;;;22.00;19.50;;;;;;;;105498;1281;14833;-51
2022/10/08 11:47:53;;;;;;;;;22.50;20.50;;;;;;;;105522;1285;15063;-49
2022/10/08 11:50:20;;;;;;;;;;;;;;;;;;105519;1283;16882;-51
2022/10/08 11:52:48;;;;;;;;;23.00;21.00;;;;;;;;105523;1306;15685;-53
2022/10/08 11:55:15;;;;;;;;;24.00;23.00;;;;;;;;105514;1303;16060;-51
2022/10/08 11:57:42;;;;;;;;;24.50;22.50;;;;;;;;105495;1285;14846;-52
2022/10/08 12:00:11;;;;;;;;;24.00;23.00;;;;;;;;105508;1306;15990;-51
2022/10/08 12:02:38;;;;;;;;;24.00;24.00;;;;;;;;105506;1305;14017;-53
2022/10/08 12:05:05;;;;;;;;;21.50;21.50;;;;;;;;105551;1306;17771;-51
2022/10/08 12:07:33;;;;;;;;;;;;;;;;;;105516;1284;17279;-50
2022/10/08 12:10:00;;;;;;;;;20.00;19.00;;;;;;;;105477;1306;16846;-52
2022/10/08 12:12:27;;;;;;;;;19.50;18.50;;;;;;;;105543;1306;16977;-53
2022/10/08 12:14:55;;;;;;;;;23.00;20.00;;;;;;;;105563;1306;14568;-51
2022/10/08 12:17:22;;;;;;;;;19.00;19.00;;;;;;;;105525;1284;15590;-54
2022/10/08 12:19:49;;;;;;;;;;;;;;;;;;105545;1306;15389;-51
2022/10/08 12:22:16;;;;;;;;;17.50;17.00;;;;;;;;105517;1306;16457;-51
2022/10/08 12:24:44;;;;;;;;;17.00;16.00;;;;;;;;105531;1302;16950;-51
2022/10/08 12:27:11;;;;;;;;;20.00;16.00;;;;;;;;105504;1306;14020;-52
2022/10/08 12:29:38;;;;;;;;;17.00;14.50;;;;;;;;105521;1306;14741;-51
2022/10/08 12:32:05;;;;;;;;;16.50;15.00;;;;;;;;105541;1306;14387;-51
2022/10/08 12:34:33;;;;;;;;;15.00;15.00;;;;;;;;105501;1294;16810;-50
2022/10/08 12:37:00;;;;;;;;;16.00;14.50;;;;;;;;105531;1306;16289;-50
2022/10/08 12:39:27;;;;;;;;;15.00;12.00;;;;;;;;105524;1283;14810;-50
2022/10/08 12:41:54;;;;;;;;;;;;;;;;;;105530;1283;14320;-52
2022/10/08 12:44:22;;;;;;;;;12.00;12.00;;;;;;;;105536;1278;15027;-50
2022/10/08 12:46:49;;;;;;;;;14.00;11.00;;;;;;;;105555;1278;15017;-51
2022/10/08 12:49:16;;;;;;;;;11.50;11.50;;;;;;;;105488;1283;16212;-53
2022/10/08 12:51:44;;;;;;;;;19.00;19.00;;;;;;;;105476;1298;17126;-50
2022/10/08 12:54:11;;;;;;;;;18.00;18.00;;;;;;;;105492;1305;17375;-50
2022/10/08 12:56:38;;;;;;;;;24.00;23.00;;;;;;;;105505;1306;16235;-53
2022/10/08 12:59:05;;;;;;;;;;;;;;;;;;105545;1306;17196;-52
2022/10/08 13:01:33;;;;;;;;;18.00;14.00;;;;;;;;105501;1278;15768;-51
2022/10/08 13:04:00;;;;;;;;;16.00;15.00;;;;;;;;105490;1285;15449;-51
2022/10/08 13:06:27;;;;;;;;;16.00;16.00;;;;;;;;105504;1283;15915;-54
2022/10/08 13:08:55;;;;;;;;;15.00;14.00;;;;;;;;105494;1295;14703;-53
2022/10/08 13:11:22;;;;;;;;;12.00;12.00;;;;;;;;105520;1291;16956;-54
2022/10/08 13:13:49;;;;;;;;;15.00;11.00;;;;;;;;105540;1298;14771;-51
2022/10/08 13:16:16;;;;;;;;;13.00;13.00;;;;;;;;105534;1306;14732;-53
2022/10/08 13:18:44;;;;;;;;;15.00;12.00;;;;;;;;105510;1278;13998;-50
2022/10/08 13:21:11;;;;;;;;;14.00;12.00;;;;;;;;105490;1285;14616;-53
2022/10/08 13:23:39;;;;;;;;;10.00;10.00;;;;;;;;105455;1292;15124;-51
2022/10/08 13:26:06;;;;;;;;;11.00;11.00;;;;;;;;105534;1305;14578;-50
2022/10/08 13:28:33;;;;;;;;;11.00;11.00;;;;;;;;105527;1299;16768;-51
2022/10/08 13:31:00;;;;;;;;;9.00;9.00;;;;;;;;105490;1292;14452;-49
2022/10/08 13:33:28;;;;;;;;;14.00;12.00;;;;;;;;105497;1283;13516;-49
2022/10/08 13:35:55;;;;;;;;;16.00;15.00;;;;;;;;105482;1289;16598;-48
2022/10/08 13:38:22;;;;;;;;;;;;;;;;;;105499;1306;15711;-52
2022/10/08 13:40:50;;;;;;;;;14.00;11.00;;;;;;;;105558;1290;16432;-54
2022/10/08 13:43:17;;;;;;;;;;;;;;;;;;105499;1285;16170;-51
2022/10/08 13:45:44;;;;;;;;;12.00;11.00;;;;;;;;105512;1306;16386;-51
2022/10/08 13:48:12;;;;;;;;;11.00;10.00;;;;;;;;105464;1306;15968;-51
2022/10/08 13:50:39;;;;;;;;;11.00;10.00;;;;;;;;105531;1294;15530;-52
2022/10/08 13:53:08;;;;;;;;;;;;;;;;;;105590;1306;16934;-53
2022/10/08 13:55:35;;;;;;;;;10.00;10.00;;;;;;;;105535;1298;16410;-51
2022/10/08 13:58:02;;;;;;;;;11.00;10.00;;;;;;;;105502;1298;17420;-50
2022/10/08 14:00:30;;;;;;;;;11.00;10.00;;;;;;;;105503;1306;13308;-51
2022/10/08 14:02:57;;;;;;;;;14.00;9.00;;;;;;;;105506;1282;16573;-50
2022/10/08 14:05:24;;;;;;;;;10.00;9.00;;;;;;;;105518;1291;16805;-51
2022/10/08 14:07:51;;;;;;;;;7.00;7.00;;;;;;;;105530;1282;16031;-52
2022/10/08 14:10:19;;;;;;;;;9.00;9.00;;;;;;;;105494;1285;16530;-54
2022/10/08 14:12:46;;;;;;;;;7.00;7.00;;;;;;;;105539;1305;15595;-53
2022/10/08 14:15:13;;;;;;;;;7.00;7.00;;;;;;;;105501;1306;14894;-53
2022/10/08 14:17:40;;;;;;;;;9.00;7.00;;;;;;;;105533;1292;16794;-51
2022/10/08 14:20:08;;;;;;;;;;;;;;;;;;105538;1306;16928;-54
2022/10/08 14:22:38;;;;;;;;;7.00;6.00;;;;;;;;105534;1306;14937;-53
2022/10/08 14:25:05;;;;;;;;;;;;;;;;;;105525;1303;16060;-54
2022/10/08 14:27:33;;;;;;;;;;;;;;;;;;105503;1285;18004;-54
2022/10/08 14:30:00;;;;;;;;;6.50;6.50;;;;;;;;105515;1306;16999;-55